createdAt,value
2018-03-02T00:00:33.556Z,1010.70
2018-03-02T00:01:39.079Z,1010.68
2018-03-02T00:02:44.597Z,1010.68
2018-03-02T00:03:50.116Z,1010.70
2018-03-02T00:04:55.636Z,1010.70
2018-03-02T00:06:01.157Z,1010.70
2018-03-02T00:07:06.677Z,1010.73
2018-03-02T00:08:12.203Z,1010.70
2018-03-02T00:09:17.718Z,1010.69
2018-03-02T00:10:23.240Z,1010.67
2018-03-02T00:11:28.756Z,1010.69
2018-03-02T00:12:34.279Z,1010.69
2018-03-02T00:13:39.800Z,1010.68
2018-03-02T00:14:45.320Z,1010.61
2018-03-02T00:15:50.839Z,1010.63
2018-03-02T00:16:56.358Z,1010.64
2018-03-02T00:18:01.879Z,1010.64
2018-03-02T00:19:07.400Z,1010.64
2018-03-02T00:20:12.930Z,1010.67
2018-03-02T00:21:18.441Z,1010.63
2018-03-02T00:22:23.963Z,1010.61
2018-03-02T00:23:29.484Z,1010.58
2018-03-02T00:24:34.996Z,1010.59
2018-03-02T00:25:40.519Z,1010.64
2018-03-02T00:26:46.046Z,1010.56
2018-03-02T00:27:51.557Z,1010.50
2018-03-02T00:28:57.080Z,1010.50
2018-03-02T00:30:02.604Z,1010.53
2018-03-02T00:31:08.125Z,1010.48
2018-03-02T00:32:13.640Z,1010.47
2018-03-02T00:33:19.164Z,1010.48
2018-03-02T00:34:24.676Z,1010.42
2018-03-02T00:35:30.209Z,1010.40
2018-03-02T00:36:35.725Z,1010.40
2018-03-02T00:37:41.244Z,1010.44
2018-03-02T00:38:46.762Z,1010.45
2018-03-02T00:39:52.284Z,1010.43
2018-03-02T00:40:57.803Z,1010.41
2018-03-02T00:42:03.324Z,1010.41
2018-03-02T00:43:08.839Z,1010.44
2018-03-02T00:44:14.359Z,1010.42
2018-03-02T00:45:19.880Z,1010.40
2018-03-02T00:46:25.401Z,1010.45
2018-03-02T00:47:30.920Z,1010.45
2018-03-02T00:48:36.445Z,1010.42
2018-03-02T00:49:41.967Z,1010.39
2018-03-02T00:50:47.483Z,1010.43
2018-03-02T00:51:53.003Z,1010.44
2018-03-02T00:52:58.522Z,1010.40
2018-03-02T00:54:04.043Z,1010.37
2018-03-02T00:55:09.565Z,1010.36
2018-03-02T00:56:15.093Z,1010.32
2018-03-02T00:57:20.598Z,1010.34
2018-03-02T00:58:26.128Z,1010.33
2018-03-02T00:59:31.642Z,1010.31
2018-03-02T01:00:37.163Z,1010.31
2018-03-02T01:01:42.682Z,1010.30
2018-03-02T01:02:48.203Z,1010.28
2018-03-02T01:03:53.724Z,1010.29
2018-03-02T01:04:59.249Z,1010.27
2018-03-02T01:06:04.769Z,1010.28
2018-03-02T01:07:10.285Z,1010.25
2018-03-02T01:08:15.804Z,1010.24
2018-03-02T01:09:21.449Z,1010.25
2018-03-02T01:10:26.844Z,1010.27
2018-03-02T01:11:32.373Z,1010.22
2018-03-02T01:12:37.892Z,1010.21
2018-03-02T01:13:43.406Z,1010.21
2018-03-02T01:14:48.925Z,1010.19
2018-03-02T01:15:54.452Z,1010.21
2018-03-02T01:16:59.965Z,1010.17
2018-03-02T01:18:05.486Z,1010.15
2018-03-02T01:19:11.008Z,1010.09
2018-03-02T01:20:16.527Z,1010.09
2018-03-02T01:21:22.053Z,1010.07
2018-03-02T01:22:27.568Z,1010.04
2018-03-02T01:23:33.097Z,1010.00
2018-03-02T01:24:38.614Z,1010.01
2018-03-02T01:25:44.129Z,1009.96
2018-03-02T01:26:49.648Z,1009.96
2018-03-02T01:27:55.173Z,1009.96
2018-03-02T01:29:00.689Z,1009.94
2018-03-02T01:30:06.213Z,1009.93
2018-03-02T01:31:11.785Z,1009.94
2018-03-02T01:32:17.255Z,1009.93
2018-03-02T01:33:22.773Z,1009.92
2018-03-02T01:34:28.295Z,1009.89
2018-03-02T01:35:33.810Z,1009.88
2018-03-02T01:36:39.340Z,1009.86
2018-03-02T01:37:44.853Z,1009.85
2018-03-02T01:38:50.373Z,1009.80
2018-03-02T01:39:55.892Z,1009.77
2018-03-02T01:41:01.416Z,1009.74
2018-03-02T01:42:06.930Z,1009.71
2018-03-02T01:43:12.455Z,1009.70
2018-03-02T01:44:17.978Z,1009.66
2018-03-02T01:45:23.496Z,1009.68
2018-03-02T01:46:29.014Z,1009.69
2018-03-02T01:47:34.542Z,1009.65
2018-03-02T01:48:40.055Z,1009.59
2018-03-02T01:49:45.600Z,1009.60
2018-03-02T01:50:51.093Z,1009.58
2018-03-02T01:51:56.614Z,1009.57
2018-03-02T01:53:02.134Z,1009.56
2018-03-02T01:54:07.661Z,1009.56
2018-03-02T01:55:13.173Z,1009.52
2018-03-02T01:56:18.694Z,1009.54
2018-03-02T01:57:24.214Z,1009.51
2018-03-02T01:58:29.734Z,1009.54
2018-03-02T01:59:35.252Z,1009.49
2018-03-02T02:00:40.782Z,1009.49
2018-03-02T02:01:46.295Z,1009.51
2018-03-02T02:02:51.812Z,1009.45
2018-03-02T02:03:57.338Z,1009.39
2018-03-02T02:05:02.860Z,1009.40
2018-03-02T02:06:08.376Z,1009.33
2018-03-02T02:07:13.903Z,1009.34
2018-03-02T02:08:19.413Z,1009.33
2018-03-02T02:09:24.931Z,1009.28
2018-03-02T02:10:30.455Z,1009.32
2018-03-02T02:11:35.976Z,1009.27
2018-03-02T02:12:41.491Z,1009.31
2018-03-02T02:13:47.012Z,1009.26
2018-03-02T02:14:52.530Z,1009.27
2018-03-02T02:15:58.050Z,1009.26
2018-03-02T02:17:03.570Z,1009.20
2018-03-02T02:18:09.095Z,1009.15
2018-03-02T02:19:14.614Z,1009.17
2018-03-02T02:20:20.155Z,1009.17
2018-03-02T02:21:25.650Z,1009.10
2018-03-02T02:22:31.172Z,1009.10
2018-03-02T02:23:36.693Z,1009.12
2018-03-02T02:24:42.213Z,1009.07
2018-03-02T02:25:47.732Z,1009.08
2018-03-02T02:26:53.249Z,1009.06
2018-03-02T02:27:58.777Z,1009.03
2018-03-02T02:29:04.290Z,1009.05
2018-03-02T02:30:09.808Z,1009.02
2018-03-02T02:31:15.325Z,1009.00
2018-03-02T02:32:20.851Z,1008.97
2018-03-02T02:33:26.369Z,1008.93
2018-03-02T02:34:31.892Z,1008.92
2018-03-02T02:35:37.407Z,1008.94
2018-03-02T02:36:42.925Z,1008.89
2018-03-02T02:37:48.438Z,1008.85
2018-03-02T02:38:54.019Z,1008.84
2018-03-02T02:39:59.480Z,1008.82
2018-03-02T02:41:05.002Z,1008.84
2018-03-02T02:42:10.523Z,1008.88
2018-03-02T02:43:16.046Z,1008.93
2018-03-02T02:44:21.559Z,1008.86
2018-03-02T02:45:27.081Z,1008.84
2018-03-02T02:46:32.597Z,1008.84
2018-03-02T02:47:38.135Z,1008.77
2018-03-02T02:48:43.641Z,1008.80
2018-03-02T02:49:49.156Z,1008.80
2018-03-02T02:50:54.676Z,1008.80
2018-03-02T02:52:00.196Z,1008.81
2018-03-02T02:53:05.713Z,1008.76
2018-03-02T02:54:11.234Z,1008.80
2018-03-02T02:55:16.758Z,1008.81
2018-03-02T02:56:22.274Z,1008.77
2018-03-02T02:57:27.787Z,1008.78
2018-03-02T02:58:33.314Z,1008.77
2018-03-02T02:59:38.827Z,1008.77
2018-03-02T03:00:44.350Z,1008.72
2018-03-02T03:01:49.869Z,1008.73
2018-03-02T03:02:55.389Z,1008.73
2018-03-02T03:04:00.907Z,1008.64
2018-03-02T03:05:06.424Z,1008.71
2018-03-02T03:06:11.940Z,1008.66
2018-03-02T03:07:17.468Z,1008.67
2018-03-02T03:08:22.985Z,1008.69
2018-03-02T03:09:28.500Z,1008.75
2018-03-02T03:10:34.022Z,1008.70
2018-03-02T03:11:39.538Z,1008.65
2018-03-02T03:12:45.062Z,1008.68
2018-03-02T03:13:50.584Z,1008.67
2018-03-02T03:14:56.096Z,1008.69
2018-03-02T03:16:01.620Z,1008.66
2018-03-02T03:17:07.134Z,1008.70
2018-03-02T03:18:12.658Z,1008.69
2018-03-02T03:19:18.177Z,1008.70
2018-03-02T03:20:23.689Z,1008.75
2018-03-02T03:21:29.215Z,1008.70
2018-03-02T03:22:34.727Z,1008.72
2018-03-02T03:23:40.247Z,1008.71
2018-03-02T03:24:45.767Z,1008.73
2018-03-02T03:25:51.285Z,1008.70
2018-03-02T03:26:56.803Z,1008.62
2018-03-02T03:28:02.326Z,1008.61
2018-03-02T03:29:07.842Z,1008.68
2018-03-02T03:30:13.361Z,1008.70
2018-03-02T03:31:18.878Z,1008.65
2018-03-02T03:32:24.403Z,1008.63
2018-03-02T03:33:29.923Z,1008.69
2018-03-02T03:34:35.442Z,1008.69
2018-03-02T03:35:40.959Z,1008.67
2018-03-02T03:36:46.474Z,1008.63
2018-03-02T03:37:51.998Z,1008.65
2018-03-02T03:38:57.510Z,1008.65
2018-03-02T03:40:03.034Z,1008.62
2018-03-02T03:41:08.549Z,1008.64
2018-03-02T03:42:14.069Z,1008.64
2018-03-02T03:43:19.585Z,1008.60
2018-03-02T03:44:25.119Z,1008.67
2018-03-02T03:45:30.625Z,1008.61
2018-03-02T03:46:36.155Z,1008.62
2018-03-02T03:47:41.662Z,1008.61
2018-03-02T03:48:47.182Z,1008.56
2018-03-02T03:49:52.704Z,1008.53
2018-03-02T03:50:58.224Z,1008.59
2018-03-02T03:52:03.733Z,1008.53
2018-03-02T03:53:09.253Z,1008.51
2018-03-02T03:54:14.772Z,1008.56
2018-03-02T03:55:20.291Z,1008.55
2018-03-02T03:56:25.812Z,1008.54
2018-03-02T03:57:31.329Z,1008.48
2018-03-02T03:58:36.848Z,1008.53
2018-03-02T03:59:42.370Z,1008.48
2018-03-02T04:00:47.884Z,1008.50
2018-03-02T04:01:53.410Z,1008.48
2018-03-02T04:02:58.927Z,1008.51
2018-03-02T04:04:04.447Z,1008.49
2018-03-02T04:05:09.968Z,1008.45
2018-03-02T04:06:15.482Z,1008.43
2018-03-02T04:07:21.000Z,1008.43
2018-03-02T04:08:26.515Z,1008.43
2018-03-02T04:09:32.035Z,1008.43
2018-03-02T04:10:37.559Z,1008.38
2018-03-02T04:11:43.080Z,1008.42
2018-03-02T04:12:48.588Z,1008.41
2018-03-02T04:13:54.118Z,1008.42
2018-03-02T04:14:59.629Z,1008.39
2018-03-02T04:16:05.150Z,1008.40
2018-03-02T04:17:10.666Z,1008.34
2018-03-02T04:18:16.183Z,1008.32
2018-03-02T04:19:21.712Z,1008.33
2018-03-02T04:20:27.229Z,1008.29
2018-03-02T04:21:32.748Z,1008.30
2018-03-02T04:22:38.252Z,1008.30
2018-03-02T04:23:43.773Z,1008.30
2018-03-02T04:24:49.310Z,1008.28
2018-03-02T04:25:54.814Z,1008.20
2018-03-02T04:27:00.333Z,1008.19
2018-03-02T04:28:05.857Z,1008.16
2018-03-02T04:29:11.411Z,1008.15
2018-03-02T04:30:16.893Z,1008.17
2018-03-02T04:31:22.409Z,1008.22
2018-03-02T04:32:27.924Z,1008.22
2018-03-02T04:33:33.444Z,1008.18
2018-03-02T04:34:38.964Z,1008.19
2018-03-02T04:35:44.479Z,1008.14
2018-03-02T04:36:50.003Z,1008.14
2018-03-02T04:37:55.520Z,1008.17
2018-03-02T04:39:01.046Z,1008.20
2018-03-02T04:40:06.558Z,1008.11
2018-03-02T04:41:12.071Z,1008.15
2018-03-02T04:42:17.592Z,1008.14
2018-03-02T04:43:23.118Z,1008.14
2018-03-02T04:44:28.628Z,1008.12
2018-03-02T04:45:34.204Z,1008.16
2018-03-02T04:46:39.681Z,1008.12
2018-03-02T04:47:45.187Z,1008.14
2018-03-02T04:48:50.706Z,1008.18
2018-03-02T04:49:56.223Z,1008.19
2018-03-02T04:51:01.742Z,1008.17
2018-03-02T04:52:07.258Z,1008.12
2018-03-02T04:53:12.789Z,1008.15
2018-03-02T04:54:18.299Z,1008.07
2018-03-02T04:55:23.819Z,1008.10
2018-03-02T04:56:29.335Z,1008.09
2018-03-02T04:57:34.853Z,1008.05
2018-03-02T04:58:40.375Z,1008.02
2018-03-02T04:59:45.895Z,1008.00
2018-03-02T05:00:51.413Z,1008.00
2018-03-02T05:01:56.926Z,1007.95
2018-03-02T05:03:02.449Z,1007.91
2018-03-02T05:04:07.963Z,1007.87
2018-03-02T05:05:13.493Z,1007.84
2018-03-02T05:06:19.008Z,1007.85
2018-03-02T05:07:24.520Z,1007.82
2018-03-02T05:08:30.040Z,1007.81
2018-03-02T05:09:35.557Z,1007.84
2018-03-02T05:10:41.071Z,1007.86
2018-03-02T05:11:46.594Z,1007.84
2018-03-02T05:12:52.117Z,1007.84
2018-03-02T05:13:57.630Z,1007.84
2018-03-02T05:15:03.151Z,1007.88
2018-03-02T05:16:08.672Z,1007.82
2018-03-02T05:17:14.195Z,1007.83
2018-03-02T05:18:19.703Z,1007.86
2018-03-02T05:19:25.220Z,1007.77
2018-03-02T05:20:30.737Z,1007.78
2018-03-02T05:21:36.261Z,1007.75
2018-03-02T05:22:41.775Z,1007.76
2018-03-02T05:23:47.300Z,1007.78
2018-03-02T05:24:52.811Z,1007.75
2018-03-02T05:25:58.421Z,1007.79
2018-03-02T05:27:03.852Z,1007.76
2018-03-02T05:28:09.363Z,1007.79
2018-03-02T05:29:14.884Z,1007.80
2018-03-02T05:30:20.408Z,1007.74
2018-03-02T05:31:25.956Z,1007.76
2018-03-02T05:32:31.444Z,1007.77
2018-03-02T05:33:36.955Z,1007.76
2018-03-02T05:34:42.474Z,1007.75
2018-03-02T05:35:47.995Z,1007.76
2018-03-02T05:36:53.514Z,1007.77
2018-03-02T05:37:59.030Z,1007.69
2018-03-02T05:39:04.551Z,1007.76
2018-03-02T05:40:10.064Z,1007.69
2018-03-02T05:41:15.590Z,1007.69
2018-03-02T05:42:21.101Z,1007.67
2018-03-02T05:43:26.619Z,1007.67
2018-03-02T05:44:32.138Z,1007.67
2018-03-02T05:45:37.661Z,1007.68
2018-03-02T05:46:43.182Z,1007.70
2018-03-02T05:47:48.697Z,1007.66
2018-03-02T05:48:54.215Z,1007.63
2018-03-02T05:49:59.752Z,1007.62
2018-03-02T05:51:05.248Z,1007.61
2018-03-02T05:52:10.764Z,1007.66
2018-03-02T05:53:16.376Z,1007.57
2018-03-02T05:54:21.813Z,1007.58
2018-03-02T05:55:27.325Z,1007.56
2018-03-02T05:56:32.839Z,1007.51
2018-03-02T05:57:38.355Z,1007.48
2018-03-02T05:58:43.874Z,1007.48
2018-03-02T05:59:49.395Z,1007.43
2018-03-02T06:00:54.912Z,1007.47
2018-03-02T06:02:00.440Z,1007.52
2018-03-02T06:03:05.954Z,1007.50
2018-03-02T06:04:11.470Z,1007.47
2018-03-02T06:05:16.981Z,1007.48
2018-03-02T06:06:22.498Z,1007.43
2018-03-02T06:07:28.024Z,1007.45
2018-03-02T06:08:33.577Z,1007.43
2018-03-02T06:09:39.055Z,1007.39
2018-03-02T06:10:44.575Z,1007.43
2018-03-02T06:11:50.091Z,1007.43
2018-03-02T06:12:55.618Z,1007.40
2018-03-02T06:14:01.131Z,1007.50
2018-03-02T06:15:06.643Z,1007.49
2018-03-02T06:16:12.166Z,1007.44
2018-03-02T06:17:17.683Z,1007.45
2018-03-02T06:18:23.202Z,1007.46
2018-03-02T06:19:28.716Z,1007.45
2018-03-02T06:20:34.232Z,1007.49
2018-03-02T06:21:39.750Z,1007.45
2018-03-02T06:22:45.332Z,1007.45
2018-03-02T06:23:50.790Z,1007.44
2018-03-02T06:24:56.311Z,1007.50
2018-03-02T06:26:01.822Z,1007.46
2018-03-02T06:27:07.343Z,1007.46
2018-03-02T06:28:12.860Z,1007.46
2018-03-02T06:29:18.378Z,1007.45
2018-03-02T06:30:23.896Z,1007.46
2018-03-02T06:31:29.409Z,1007.41
2018-03-02T06:32:34.931Z,1007.40
2018-03-02T06:33:40.449Z,1007.40
2018-03-02T06:34:45.968Z,1007.38
2018-03-02T06:35:51.493Z,1007.30
2018-03-02T06:36:56.999Z,1007.33
2018-03-02T06:38:02.524Z,1007.34
2018-03-02T06:39:08.041Z,1007.33
2018-03-02T06:40:13.564Z,1007.30
2018-03-02T06:41:19.072Z,1007.30
2018-03-02T06:42:24.595Z,1007.31
2018-03-02T06:43:30.105Z,1007.28
2018-03-02T06:44:35.630Z,1007.26
2018-03-02T06:45:41.145Z,1007.24
2018-03-02T06:46:46.661Z,1007.28
2018-03-02T06:47:52.185Z,1007.29
2018-03-02T06:48:57.699Z,1007.28
2018-03-02T06:50:03.214Z,1007.31
2018-03-02T06:51:08.731Z,1007.26
2018-03-02T06:52:14.283Z,1007.23
2018-03-02T06:53:19.768Z,1007.24
2018-03-02T06:54:25.285Z,1007.22
2018-03-02T06:55:30.807Z,1007.25
2018-03-02T06:56:36.327Z,1007.26
2018-03-02T06:57:41.842Z,1007.22
2018-03-02T06:58:47.392Z,1007.21
2018-03-02T06:59:52.879Z,1007.17
2018-03-02T07:00:58.394Z,1007.19
2018-03-02T07:02:03.919Z,1007.16
2018-03-02T07:03:09.431Z,1007.16
2018-03-02T07:04:14.985Z,1007.12
2018-03-02T07:05:20.467Z,1007.13
2018-03-02T07:06:25.996Z,1007.18
2018-03-02T07:07:31.530Z,1007.17
2018-03-02T07:08:37.024Z,1007.18
2018-03-02T07:09:42.542Z,1007.16
2018-03-02T07:10:48.063Z,1007.17
2018-03-02T07:11:53.585Z,1007.12
2018-03-02T07:12:59.103Z,1007.14
2018-03-02T07:14:04.622Z,1007.11
2018-03-02T07:15:10.135Z,1007.10
2018-03-02T07:16:15.758Z,1007.10
2018-03-02T07:17:21.205Z,1007.05
2018-03-02T07:18:26.696Z,1007.03
2018-03-02T07:19:32.222Z,1007.04
2018-03-02T07:20:37.736Z,1007.03
2018-03-02T07:21:43.268Z,1007.07
2018-03-02T07:22:48.774Z,1007.08
2018-03-02T07:23:54.287Z,1007.12
2018-03-02T07:24:59.817Z,1007.12
2018-03-02T07:26:05.336Z,1007.11
2018-03-02T07:27:10.854Z,1007.10
2018-03-02T07:28:16.369Z,1007.13
2018-03-02T07:29:21.895Z,1007.10
2018-03-02T07:30:27.406Z,1007.13
2018-03-02T07:31:32.925Z,1007.03
2018-03-02T07:32:38.442Z,1007.06
2018-03-02T07:33:43.963Z,1007.00
2018-03-02T07:34:49.484Z,1007.03
2018-03-02T07:35:55.003Z,1006.95
2018-03-02T07:37:00.525Z,1006.98
2018-03-02T07:38:06.048Z,1006.99
2018-03-02T07:39:11.565Z,1006.97
2018-03-02T07:40:17.082Z,1007.00
2018-03-02T07:41:22.603Z,1006.93
2018-03-02T07:42:28.116Z,1006.92
2018-03-02T07:43:33.644Z,1006.96
2018-03-02T07:44:39.159Z,1006.93
2018-03-02T07:45:44.681Z,1006.89
2018-03-02T07:46:50.205Z,1006.89
2018-03-02T07:47:55.723Z,1006.84
2018-03-02T07:49:01.240Z,1006.82
2018-03-02T07:50:06.754Z,1006.77
2018-03-02T07:51:12.280Z,1006.76
2018-03-02T07:52:17.797Z,1006.75
2018-03-02T07:53:23.400Z,1006.73
2018-03-02T07:54:28.842Z,1006.70
2018-03-02T07:55:34.355Z,1006.65
2018-03-02T07:56:39.878Z,1006.69
2018-03-02T07:57:45.396Z,1006.66
2018-03-02T07:58:50.921Z,1006.67
2018-03-02T07:59:56.443Z,1006.65
2018-03-02T08:01:01.958Z,1006.68
2018-03-02T08:02:07.481Z,1006.57
2018-03-02T08:03:12.997Z,1006.64
2018-03-02T08:04:18.557Z,1006.67
2018-03-02T08:05:24.046Z,1006.65
2018-03-02T08:06:29.570Z,1006.61
2018-03-02T08:07:35.089Z,1006.66
2018-03-02T08:08:40.629Z,1006.63
2018-03-02T08:09:46.184Z,1006.62
2018-03-02T08:10:51.642Z,1006.60
2018-03-02T08:11:57.171Z,1006.59
2018-03-02T08:13:02.684Z,1006.63
2018-03-02T08:14:08.211Z,1006.59
2018-03-02T08:15:13.729Z,1006.52
2018-03-02T08:16:19.285Z,1006.57
2018-03-02T08:17:24.772Z,1006.56
2018-03-02T08:18:30.294Z,1006.51
2018-03-02T08:19:35.814Z,1006.59
2018-03-02T08:20:41.332Z,1006.53
2018-03-02T08:21:46.857Z,1006.48
2018-03-02T08:22:52.383Z,1006.57
2018-03-02T08:23:57.900Z,1006.53
2018-03-02T08:25:03.426Z,1006.50
2018-03-02T08:26:08.948Z,1006.47
2018-03-02T08:27:14.462Z,1006.43
2018-03-02T08:28:19.986Z,1006.45
2018-03-02T08:29:25.509Z,1006.41
2018-03-02T08:30:31.035Z,1006.38
2018-03-02T08:31:36.576Z,1006.41
2018-03-02T08:32:42.072Z,1006.44
2018-03-02T08:33:47.597Z,1006.42
2018-03-02T08:34:53.114Z,1006.38
2018-03-02T08:35:58.638Z,1006.41
2018-03-02T08:37:04.181Z,1006.42
2018-03-02T08:38:09.681Z,1006.41
2018-03-02T08:39:15.202Z,1006.38
2018-03-02T08:40:20.721Z,1006.37
2018-03-02T08:41:26.245Z,1006.37
2018-03-02T08:42:31.785Z,1006.39
2018-03-02T08:43:37.294Z,1006.35
2018-03-02T08:44:42.810Z,1006.32
2018-03-02T08:45:48.336Z,1006.32
2018-03-02T08:46:53.857Z,1006.29
2018-03-02T08:47:59.408Z,1006.30
2018-03-02T08:49:04.902Z,1006.25
2018-03-02T08:50:10.423Z,1006.27
2018-03-02T08:51:15.953Z,1006.28
2018-03-02T08:52:21.467Z,1006.19
2018-03-02T08:53:26.994Z,1006.23
2018-03-02T08:54:32.513Z,1006.18
2018-03-02T08:55:38.038Z,1006.21
2018-03-02T08:56:43.569Z,1006.20
2018-03-02T08:57:49.141Z,1006.17
2018-03-02T08:58:54.603Z,1006.16
2018-03-02T09:00:00.134Z,1006.15
2018-03-02T09:01:05.653Z,1006.08
2018-03-02T09:02:11.174Z,1006.07
2018-03-02T09:03:16.698Z,1006.10
2018-03-02T09:04:22.222Z,1006.05
2018-03-02T09:05:27.746Z,1006.06
2018-03-02T09:06:33.269Z,1006.04
2018-03-02T09:07:38.791Z,1006.01
2018-03-02T09:08:44.311Z,1006.01
2018-03-02T09:09:49.845Z,1005.93
2018-03-02T09:12:27.306Z,1005.96
2018-03-02T09:13:32.556Z,1005.92
2018-03-02T09:17:03.715Z,1005.84
2018-03-02T09:18:08.264Z,1005.78
2018-03-02T09:20:06.689Z,1005.74
2018-03-02T09:21:12.174Z,1005.74
2018-03-02T09:22:17.695Z,1005.72
2018-03-02T09:23:23.219Z,1005.71
2018-03-02T09:24:28.740Z,1005.70
2018-03-02T09:25:34.268Z,1005.71
2018-03-02T09:26:39.783Z,1005.72
2018-03-02T09:27:45.312Z,1005.65
2018-03-02T09:28:50.846Z,1005.75
2018-03-02T09:29:56.357Z,1005.63
2018-03-02T09:31:01.885Z,1005.64
2018-03-02T09:32:07.412Z,1005.65
2018-03-02T09:33:12.934Z,1005.58
2018-03-02T09:35:50.182Z,1005.63
2018-03-02T09:36:55.684Z,1005.64
2018-03-02T09:38:01.208Z,1005.56
2018-03-02T09:39:06.731Z,1005.63
2018-03-02T09:40:12.255Z,1005.59
2018-03-02T09:41:17.777Z,1005.60
2018-03-02T09:42:23.310Z,1005.60
2018-03-02T09:43:28.830Z,1005.63
2018-03-02T09:44:34.351Z,1005.62
2018-03-02T09:48:43.538Z,1005.52
2018-03-02T09:49:48.785Z,1005.53
2018-03-02T09:51:47.303Z,1005.52
2018-03-02T09:52:52.814Z,1005.50
2018-03-02T09:53:58.339Z,1005.44
2018-03-02T09:55:03.865Z,1005.37
2018-03-02T09:56:09.384Z,1005.45
2018-03-02T09:57:14.914Z,1005.38
2018-03-02T09:58:20.443Z,1005.35
2018-03-02T09:59:25.964Z,1005.39
2018-03-02T10:00:31.486Z,1005.34
2018-03-02T10:01:37.013Z,1005.31
2018-03-02T10:02:42.546Z,1005.30
2018-03-02T10:03:48.057Z,1005.35
2018-03-02T10:04:53.590Z,1005.33
2018-03-02T10:05:59.108Z,1005.31
2018-03-02T10:07:04.644Z,1005.31
2018-03-02T10:08:10.171Z,1005.33
2018-03-02T10:09:15.684Z,1005.31
2018-03-02T10:10:21.213Z,1005.28
2018-03-02T10:11:26.739Z,1005.28
2018-03-02T10:12:32.259Z,1005.28
2018-03-02T10:13:37.788Z,1005.30
2018-03-02T10:14:43.311Z,1005.35
2018-03-02T10:15:48.835Z,1005.22
2018-03-02T10:16:54.357Z,1005.30
2018-03-02T10:17:59.879Z,1005.13
2018-03-02T10:19:05.405Z,1005.12
2018-03-02T10:20:10.937Z,1005.07
2018-03-02T10:21:16.464Z,1005.08
2018-03-02T10:22:21.984Z,1005.12
2018-03-02T10:23:27.515Z,1005.07
2018-03-02T10:24:33.037Z,1005.04
2018-03-02T10:25:38.560Z,1005.06
2018-03-02T10:26:44.080Z,1005.06
2018-03-02T10:27:49.612Z,1005.01
2018-03-02T10:28:55.133Z,1005.02
2018-03-02T10:30:00.660Z,1005.02
2018-03-02T10:31:06.189Z,1005.05
2018-03-02T10:32:11.715Z,1004.99
2018-03-02T10:33:17.244Z,1005.00
2018-03-02T10:34:22.756Z,1005.00
2018-03-02T10:35:28.286Z,1005.04
2018-03-02T10:36:33.811Z,1005.07
2018-03-02T10:37:39.336Z,1004.91
2018-03-02T10:38:44.871Z,1004.91
2018-03-02T10:39:50.383Z,1004.96
2018-03-02T10:40:55.909Z,1004.91
2018-03-02T10:42:01.441Z,1004.92
2018-03-02T10:43:06.965Z,1004.89
2018-03-02T10:44:12.490Z,1004.89
2018-03-02T10:45:18.014Z,1004.85
2018-03-02T10:46:23.543Z,1004.82
2018-03-02T10:47:29.065Z,1004.88
2018-03-02T10:48:34.583Z,1004.77
2018-03-02T10:49:40.111Z,1004.79
2018-03-02T10:50:45.634Z,1004.74
2018-03-02T10:51:51.161Z,1004.77
2018-03-02T10:54:28.430Z,1004.71
2018-03-02T10:55:33.934Z,1004.74
2018-03-02T10:56:39.454Z,1004.67
2018-03-02T10:57:44.976Z,1004.66
2018-03-02T10:58:50.509Z,1004.65
2018-03-02T10:59:56.030Z,1004.64
2018-03-02T11:01:01.554Z,1004.62
2018-03-02T11:02:07.082Z,1004.62
2018-03-02T11:03:12.601Z,1004.49
2018-03-02T11:04:18.126Z,1004.59
2018-03-02T11:05:23.650Z,1004.58
2018-03-02T11:06:29.170Z,1004.59
2018-03-02T11:07:34.703Z,1004.52
2018-03-02T11:08:40.222Z,1004.55
2018-03-02T11:09:45.749Z,1004.52
2018-03-02T11:10:51.275Z,1004.44
2018-03-02T11:11:56.806Z,1004.46
2018-03-02T11:13:02.330Z,1004.44
2018-03-02T11:14:07.846Z,1004.40
2018-03-02T11:15:13.365Z,1004.38
2018-03-02T11:16:18.892Z,1004.34
2018-03-02T11:17:24.412Z,1004.37
2018-03-02T11:18:29.947Z,1004.43
2018-03-02T11:19:35.463Z,1004.42
2018-03-02T11:20:40.990Z,1004.36
2018-03-02T11:21:46.509Z,1004.30
2018-03-02T11:22:52.035Z,1004.39
2018-03-02T11:23:57.629Z,1004.25
2018-03-02T11:25:03.082Z,1004.26
2018-03-02T11:26:08.607Z,1004.25
2018-03-02T11:27:14.143Z,1004.19
2018-03-02T11:28:19.652Z,1004.24
2018-03-02T11:29:25.202Z,1004.16
2018-03-02T11:30:30.719Z,1004.14
2018-03-02T11:31:36.224Z,1004.11
2018-03-02T11:32:41.754Z,1004.03
2018-03-02T11:33:47.281Z,1004.07
2018-03-02T11:34:52.801Z,1004.02
2018-03-02T11:35:58.327Z,1004.06
2018-03-02T11:37:03.847Z,1004.07
2018-03-02T11:38:09.376Z,1003.97
2018-03-02T11:39:15.197Z,1003.89
2018-03-02T11:40:20.424Z,1003.92
2018-03-02T11:41:25.956Z,1003.86
2018-03-02T11:42:31.476Z,1003.84
2018-03-02T11:43:37.003Z,1003.85
2018-03-02T11:44:42.526Z,1003.92
2018-03-02T11:45:48.054Z,1003.92
2018-03-02T11:46:53.646Z,1003.98
2018-03-02T11:47:59.100Z,1003.91
2018-03-02T11:49:04.625Z,1003.89
2018-03-02T11:50:10.153Z,1003.86
2018-03-02T11:51:15.680Z,1003.83
2018-03-02T11:52:21.205Z,1004.01
2018-03-02T11:53:26.734Z,1003.81
2018-03-02T11:54:32.262Z,1003.79
2018-03-02T11:55:37.791Z,1003.78
2018-03-02T11:56:43.309Z,1003.79
2018-03-02T11:57:49.758Z,1003.80
2018-03-02T11:58:54.361Z,1003.78
2018-03-02T11:59:59.882Z,1003.77
2018-03-02T12:01:05.401Z,1003.74
2018-03-02T12:02:10.934Z,1003.75
2018-03-02T12:03:16.463Z,1003.73
2018-03-02T12:04:21.983Z,1003.76
2018-03-02T12:05:27.516Z,1003.72
2018-03-02T12:06:33.028Z,1003.71
2018-03-02T12:07:38.606Z,1003.67
2018-03-02T12:08:44.078Z,1003.69
2018-03-02T12:09:49.604Z,1003.72
2018-03-02T12:10:55.129Z,1003.64
2018-03-02T12:12:00.657Z,1003.72
2018-03-02T12:13:06.181Z,1003.79
2018-03-02T12:14:11.701Z,1003.69
2018-03-02T12:15:17.236Z,1003.67
2018-03-02T12:16:22.753Z,1003.68
2018-03-02T12:17:28.328Z,1003.71
2018-03-02T12:18:33.814Z,1003.68
2018-03-02T12:19:39.329Z,1003.70
2018-03-02T12:20:44.849Z,1003.78
2018-03-02T12:21:50.376Z,1003.77
2018-03-02T12:22:55.902Z,1003.67
2018-03-02T12:24:01.427Z,1003.69
2018-03-02T12:25:06.955Z,1003.65
2018-03-02T12:26:12.479Z,1003.73
2018-03-02T12:27:18.003Z,1003.73
2018-03-02T12:28:23.571Z,1003.63
2018-03-02T12:29:29.056Z,1003.57
2018-03-02T12:30:34.575Z,1003.76
2018-03-02T12:31:40.103Z,1003.71
2018-03-02T12:34:17.363Z,1003.74
2018-03-02T12:35:22.854Z,1003.69
2018-03-02T12:36:28.373Z,1003.71
2018-03-02T12:37:33.895Z,1003.59
2018-03-02T12:38:39.415Z,1003.69
2018-03-02T12:39:44.946Z,1003.72
2018-03-02T12:40:50.465Z,1003.66
2018-03-02T12:41:55.992Z,1003.68
2018-03-02T12:43:01.514Z,1003.60
2018-03-02T12:44:07.046Z,1003.75
2018-03-02T12:45:12.561Z,1003.71
2018-03-02T12:46:18.086Z,1003.59
2018-03-02T12:47:23.621Z,1003.62
2018-03-02T12:48:29.135Z,1003.64
2018-03-02T12:49:34.654Z,1003.54
2018-03-02T12:50:40.249Z,1003.63
2018-03-02T12:51:45.704Z,1003.61
2018-03-02T12:52:51.286Z,1003.69
2018-03-02T12:53:56.754Z,1003.53
2018-03-02T12:55:02.309Z,1003.56
2018-03-02T12:56:07.814Z,1003.63
2018-03-02T12:57:13.338Z,1003.57
2018-03-02T12:58:18.852Z,1003.53
2018-03-02T12:59:24.375Z,1003.54
2018-03-02T13:00:29.950Z,1003.47
2018-03-02T13:01:35.425Z,1003.54
2018-03-02T13:02:40.960Z,1003.50
2018-03-02T13:03:46.466Z,1003.62
2018-03-02T13:04:51.990Z,1003.54
2018-03-02T13:05:57.516Z,1003.57
2018-03-02T13:07:03.038Z,1003.52
2018-03-02T13:08:08.565Z,1003.50
2018-03-02T13:09:14.117Z,1003.53
2018-03-02T13:10:19.607Z,1003.54
2018-03-02T13:11:25.135Z,1003.57
2018-03-02T13:12:30.654Z,1003.54
2018-03-02T13:13:36.179Z,1003.53
2018-03-02T13:14:41.703Z,1003.55
2018-03-02T13:15:47.227Z,1003.57
2018-03-02T13:16:52.756Z,1003.63
2018-03-02T13:17:58.270Z,1003.62
2018-03-02T13:19:03.797Z,1003.55
2018-03-02T13:20:09.320Z,1003.60
2018-03-02T13:21:14.846Z,1003.49
2018-03-02T13:22:20.365Z,1003.51
2018-03-02T13:23:25.898Z,1003.52
2018-03-02T13:24:31.446Z,1003.53
2018-03-02T13:25:36.936Z,1003.51